Annsville, New York
Current Conditions -  °F | °C
As of 7:53 AM on Saturday 01 Nov 2014 (Local Time) from KRME Reporting Station
Overcast Overcast  
Wind Chill: 35°   Ceiling: 6000
Heat Index: 39°   Visibility: 10mi
Dew Point: 31°   Wind: 6mph
Humidity: 73%   Direction: NA
Pressure: 29.99"   Gusts: NA
Location:  43.3949°N, 75.6118°W
Report Text: KRME 011153Z VRB05KT 10SM SCT050 OVC060 04/M01 A2999 RMK AO2 SLP158 T00391006 10061 20033 53009
Loading
Personal Weather Stations






























Interactive Weather Map
Tropical Storm Tracking
New forecast layout! Learn more

10-Day Weather Forecast

Advertisements
Track Severe Weather on mobile